x

Virginia Beach 64 Nm East Of Virginia Beach, Va (44014) Wave Buoy

9:50am - Tue 23rd Sep 2014 All times are EDT. -4 hours from GMT.

  • Sig Wave height 4.3ft
  • Swell Direction
  • Peak Period 6s
  • Average Period 5s
  • Wind
    13mph, 16mph gusts
  • Sea Temp 76°f
  • Air Temp 69°f
  • Sea Pressure 1023.8mb
  • Virginia Beach 64 Nm East Of Virginia Beach, Va
  • Virginia Beach 64 Nm East Of Virginia Beach, Va

More Historic Weather Station data

Upgrade to MSW Pro to gain access to the past 30 days of data for over 8000 Wavebouys and Weather Stations around the globe.

Join Pro

Comparision Forecast

View Surf forecast
   
Tue 09/23 9:50am 4.5ft 6s 5s 13 16 mph 1023.8mb 76f 69f
8:50am 4ft 6s 5s 13 18 mph 1023.4mb 76f 69f
7:50am 4.5ft 6s 5s 16 18 mph 1022.8mb 76f 69f
6:50am 4.5ft 6s 5s 18 22 mph 1022mb 75f 68f
5:50am 4.5ft 7s 5s 18 22 mph 1022mb 75f 69f
4:50am 4ft 5s 4s 20 25 mph 1021mb 74f 69f
3:50am 3.5ft 5s 4s 20 25 mph 1020.7mb 75f 70f
2:50am 3.5ft 8s 4s 20 25 mph 1020.5mb 76f 70f
1:50am 4ft 8s 4s 20 22 mph 1020.7mb 76f 71f
12:50am 3.5ft 8s 4s 18 22 mph 1020.5mb 76f 71f
Mon 09/22 11:50pm 3.5ft 8s 5s 18 22 mph 1020mb 76f 71f
10:50pm 3ft 8s 5s 18 20 mph 1019.7mb 76f 72f
9:50pm 3.5ft 8s 5s 13 18 mph 1019.2mb 76f 71f
8:50pm 3.5ft 8s 5s 13 18 mph 1018.5mb 76f 71f
7:50pm 3.5ft 5s 5s 16 18 mph 1017.8mb 76f 72f
5:50pm 3.5ft 8s 5s 13 16 mph 1016.7mb 76f 71f
4:50pm 3.5ft 8s 5s 11 16 mph 1016.4mb 77f 71f
3:50pm 4ft 9s 5s 13 18 mph 1015.8mb 77f 71f
2:50pm 4.5ft 9s 5s 13 18 mph 1015.5mb 77f 71f
1:50pm 4.5ft 10s 5s 13 18 mph 1015.5mb 77f 71f
12:50pm 4.5ft 8s 5s 13 18 mph 1015.6mb 76f 71f
11:50am 5ft 9s 5s 18 20 mph 1015.2mb 76f 71f
10:50am 5ft 8s 5s 20 25 mph 1014.5mb 76f 72f
9:50am 5ft 9s 5s 18 20 mph 1014.1mb 76f 74f
8:50am 5ft 9s 6s 16 20 mph 1013.1mb 76f 75f
7:50am 4.5ft 10s 6s 16 20 mph 1012.3mb 76f 75f
6:50am 5.5ft 9s 6s 13 18 mph 1011.5mb 76f 75f
5:50am 5ft 9s 6s 16 18 mph 1010.7mb 76f 74f
4:50am 5.5ft 9s 6s 16 18 mph 1009.8mb 76f 75f
3:50am 6ft 10s 6s 16 20 mph 1009.1mb 76f 75f
2:50am 5.5ft 10s 6s 20 25 mph 1008.5mb 74f 75f
1:50am 5.5ft 9s 6s 20 25 mph 1008.3mb 74f 75f
12:50am 5ft 9s 5s 20 22 mph 1008.3mb 76f 75f
Sun 09/21 11:50pm 5ft 8s 5s 20 25 mph 1008.1mb 77f 76f
10:50pm 4.5ft 8s 6s 20 25 mph 1007.9mb 77f 76f
9:50pm 4.5ft 8s 6s 18 22 mph 1007.9mb 77f 76f
8:50pm 5ft 8s 6s 16 20 mph 1007.8mb 77f 75f
7:50pm 5ft 8s 6s 11 13 mph 1007.1mb 77f 74f
6:50pm 5.5ft 9s 6s 13 18 mph 1006.4mb 77f 74f
5:50pm 6ft 9s 6s 18 20 mph 1005.6mb 77f 74f
4:50pm 6.5ft 9s 6s 20 22 mph 1005mb 77f 74f
3:50pm 7ft 9s 5s 22 27 mph 1004.6mb 76f 73f
2:50pm 7ft 8s 5s 25 27 mph 1004mb 76f 73f
1:50pm 7.5ft 8s 6s 25 29 mph 1004.4mb 74f 73f
12:50pm 7.5ft 8s 6s 25 29 mph 1004.9mb 72f 74f
11:50am 6.5ft 8s 6s 22 27 mph 1005.4mb 71f 74f
10:50am 7ft 7s 6s 22 27 mph 1005.4mb 70f 73f
9:50am 7ft 7s 6s 22 29 mph 1005.7mb 70f 74f
8:50am 7ft 8s 6s 13 18 mph 1006.5mb 70f 73f
7:50am 7.5ft 9s 7s 11 13 mph 1007.1mb 70f 73f
6:50am 8ft 9s 7s 7 9 mph 1007.8mb 70f 72f
5:50am 7ft 9s 6s 16 20 mph 1008.4mb 74f 74f
4:50am 7ft 10s 6s 11 13 mph 1009.4mb 74f 74f
3:50am 7ft 9s 6s 20 25 mph 1009.9mb 75f 74f
2:50am 7ft 9s 6s 16 18 mph 1011.4mb 77f 75f
1:50am 6.5ft 9s 7s 16 27 mph 1012.6mb 77f 77f
12:50am 6.5ft 10s 7s 9 11 mph 1013.5mb 77f 77f
Sat 09/20 11:50pm 6ft 10s 6s 16 18 mph 1014.2mb 77f 77f
10:50pm 7ft 8s 6s 13 16 mph 1014.9mb 77f 76f
9:50pm 6.5ft 10s 6s 20 22 mph 1015.8mb 77f 76f
8:50pm 7.5ft 10s 7s 11 13 mph 1016.3mb 78f 77f
7:50pm 7ft 10s 7s 13 16 mph 1016.1mb 77f 76f
6:50pm 8ft 9s 6s 16 18 mph 1016.3mb 77f 75f
5:50pm 7ft 10s 6s 18 20 mph 1016.7mb 77f 75f
4:50pm 8.5ft 9s 6s 18 22 mph 1017mb 77f 74f
3:50pm 8ft 9s 6s 20 22 mph 1017.5mb 77f 74f
2:50pm 8ft 9s 6s 16 20 mph 1018.3mb 77f 74f
1:50pm 8ft 9s 6s 18 20 mph 1018.8mb 77f 74f
12:50pm 8ft 10s 6s 18 20 mph 1020mb 77f 74f
11:50am 8ft 9s 6s 18 25 mph 1020.8mb 77f 73f
10:50am 7ft 8s 6s 20 27 mph 1020.8mb 77f 73f
9:50am 8ft 8s 6s 25 29 mph 1020.7mb 77f 73f
8:50am 7ft 7s 6s 22 25 mph 1020.8mb 77f 74f
7:50am 7.5ft 8s 6s 20 25 mph 1020.8mb 77f 74f
6:50am 7ft 7s 6s 20 22 mph 1021mb 76f 74f
5:50am 6.5ft 8s 6s 20 25 mph 1021.1mb 76f 73f
4:50am 6ft 7s 5s 22 27 mph 1020.9mb 74f 72f
3:50am 5.5ft 6s 5s 22 27 mph 1021.3mb 74f 72f
2:50am 5ft 8s 5s 22 27 mph 1022mb 75f 73f
1:50am 4.5ft 7s 5s 20 25 mph 1022.6mb 76f 74f
12:50am 4.5ft 8s 5s 20 25 mph 1023mb 76f 74f
Fri 09/19 11:50pm 4.5ft 5s 5s 18 20 mph 1023.5mb 75f 73f
10:50pm 4ft 6s 5s 18 22 mph 1023.6mb 75f 73f
9:50pm 4.5ft 6s 5s 18 22 mph 1023.6mb 75f 73f
8:50pm 4ft 4s 5s 18 22 mph 1023.4mb 75f 73f
7:50pm 4ft 7s 5s 18 25 mph 1023.1mb 75f 73f
6:50pm 3.5ft 9s 5s 18 22 mph 1023.1mb 75f 73f
5:50pm 3.5ft 8s 5s 18 20 mph 1022.9mb 75f 74f
4:50pm 3.5ft 7s 5s 16 18 mph 1022.7mb 76f 73f
3:50pm 3.5ft 8s 5s 13 16 mph 1022.7mb 76f 74f